createdAt,value
2022-07-26T00:00:26.048Z,89.36
2022-07-26T00:01:32.192Z,88.79
2022-07-26T00:02:27.174Z,88.79
2022-07-26T00:03:26.012Z,89.40
2022-07-26T00:04:26.085Z,89.91
2022-07-26T00:05:26.022Z,89.61
2022-07-26T00:06:26.021Z,89.40
2022-07-26T00:07:26.006Z,89.70
2022-07-26T00:08:26.045Z,90.05
2022-07-26T00:09:26.011Z,90.31
2022-07-26T00:10:25.976Z,90.16
2022-07-26T00:11:26.117Z,90.36
2022-07-26T00:12:25.974Z,89.85
2022-07-26T00:13:28.922Z,89.79
2022-07-26T00:14:26.030Z,89.69
2022-07-26T00:15:25.976Z,89.45
2022-07-26T00:16:26.003Z,89.89
2022-07-26T00:17:25.912Z,89.48
2022-07-26T00:18:26.038Z,89.39
2022-07-26T00:19:25.933Z,89.89
2022-07-26T00:20:27.695Z,89.59
2022-07-26T00:21:26.900Z,89.48
2022-07-26T00:22:25.926Z,89.69
2022-07-26T00:23:25.874Z,89.69
2022-07-26T00:24:26.043Z,89.94
2022-07-26T00:25:25.920Z,89.79
2022-07-26T00:26:25.892Z,89.73
2022-07-26T00:27:25.862Z,89.59
2022-07-26T00:28:25.863Z,89.83
2022-07-26T00:29:25.830Z,89.53
2022-07-26T00:30:25.839Z,89.63
2022-07-26T00:31:25.896Z,89.83
2022-07-26T00:32:25.833Z,89.53
2022-07-26T00:33:25.786Z,90.24
2022-07-26T00:34:25.943Z,89.83
2022-07-26T00:35:25.845Z,89.73
2022-07-26T00:36:25.795Z,90.44
2022-07-26T00:37:25.891Z,90.24
2022-07-26T00:38:25.753Z,90.95
2022-07-26T00:39:26.466Z,90.75
2022-07-26T00:40:26.406Z,91.09
2022-07-26T00:41:25.745Z,91.39
2022-07-26T00:42:25.846Z,92.10
2022-07-26T00:43:25.773Z,92.10
2022-07-26T00:44:25.742Z,92.41
2022-07-26T00:45:25.712Z,92.31
2022-07-26T00:46:25.754Z,93.32
2022-07-26T00:47:25.692Z,93.22
2022-07-26T00:48:25.701Z,93.52
2022-07-26T00:49:25.761Z,93.83
2022-07-26T00:50:26.251Z,94.34
2022-07-26T00:51:25.694Z,94.13
2022-07-26T00:52:26.257Z,94.64
2022-07-26T00:53:25.670Z,94.23
2022-07-26T00:54:25.683Z,94.23
2022-07-26T00:55:25.672Z,95.25
2022-07-26T00:56:25.649Z,95.45
2022-07-26T00:57:26.386Z,95.35
2022-07-26T00:58:25.622Z,95.55
2022-07-26T00:59:25.596Z,95.86
2022-07-26T01:00:25.598Z,95.86
2022-07-26T01:01:25.697Z,96.00
2022-07-26T01:02:25.624Z,95.95
2022-07-26T01:03:29.250Z,96.30
2022-07-26T01:04:27.326Z,96.15
2022-07-26T01:05:25.563Z,96.36
2022-07-26T01:06:27.511Z,96.41
2022-07-26T01:07:27.248Z,96.46
2022-07-26T01:08:25.562Z,95.90
2022-07-26T01:09:25.549Z,96.36
2022-07-26T01:10:25.528Z,97.02
2022-07-26T01:11:25.542Z,96.61
2022-07-26T01:12:25.516Z,96.41
2022-07-26T01:13:25.586Z,97.11
2022-07-26T01:14:25.492Z,97.11
2022-07-26T01:15:25.498Z,97.32
2022-07-26T01:16:25.518Z,97.02
2022-07-26T01:17:25.489Z,97.22
2022-07-26T01:18:25.484Z,97.11
2022-07-26T01:19:25.489Z,97.02
2022-07-26T01:20:25.453Z,97.22
2022-07-26T01:21:25.462Z,96.91
2022-07-26T01:22:25.443Z,96.71
2022-07-26T01:23:26.258Z,97.02
2022-07-26T01:24:26.259Z,97.11
2022-07-26T01:25:25.430Z,97.02
2022-07-26T01:26:25.895Z,97.32
2022-07-26T01:27:25.393Z,97.11
2022-07-26T01:28:25.424Z,97.32
2022-07-26T01:29:35.974Z,96.71
2022-07-26T01:30:26.385Z,97.22
2022-07-26T01:31:25.451Z,96.55
2022-07-26T01:32:25.359Z,96.15
2022-07-26T01:33:25.351Z,96.66
2022-07-26T01:34:25.362Z,96.35
2022-07-26T01:35:26.344Z,96.04
2022-07-26T01:36:25.586Z,96.04
2022-07-26T01:37:25.316Z,96.15
2022-07-26T01:38:25.317Z,96.55
2022-07-26T01:39:25.325Z,95.84
2022-07-26T01:40:25.310Z,96.04
2022-07-26T01:41:37.448Z,95.54
2022-07-26T01:42:26.288Z,95.34
2022-07-26T01:43:25.273Z,95.23
2022-07-26T01:44:25.279Z,94.38
2022-07-26T02:02:44.987Z,94.48
2022-07-26T02:03:44.830Z,95.39
2022-07-26T02:04:44.818Z,95.19
2022-07-26T02:05:44.802Z,94.98
2022-07-26T02:06:46.506Z,95.86
2022-07-26T02:07:45.927Z,96.41
2022-07-26T02:08:45.933Z,96.06
2022-07-26T02:09:45.898Z,96.15
2022-07-26T02:10:45.883Z,95.39
2022-07-26T02:11:45.888Z,95.90
2022-07-26T02:12:45.891Z,96.46
2022-07-26T02:13:48.834Z,95.50
2022-07-26T02:14:46.851Z,96.10
2022-07-26T02:15:45.951Z,96.06
2022-07-26T02:16:45.994Z,96.30
2022-07-26T02:17:45.863Z,96.20
2022-07-26T02:18:45.881Z,96.41
2022-07-26T02:19:45.824Z,96.30
2022-07-26T02:20:45.831Z,96.30
2022-07-26T02:21:45.797Z,96.81
2022-07-26T02:22:45.861Z,96.91
2022-07-26T02:23:45.809Z,97.38
2022-07-26T02:24:45.861Z,97.67
2022-07-26T02:25:45.786Z,97.32
2022-07-26T02:26:45.940Z,97.58
2022-07-26T02:27:45.827Z,97.88
2022-07-26T02:28:46.537Z,97.47
2022-07-26T02:29:45.789Z,97.17
2022-07-26T02:30:45.818Z,97.58
2022-07-26T02:31:48.207Z,97.17
2022-07-26T02:32:45.730Z,97.58
2022-07-26T02:33:45.738Z,97.17
2022-07-26T02:34:45.712Z,97.47
2022-07-26T02:35:45.741Z,97.67
2022-07-26T02:36:45.695Z,97.78
2022-07-26T02:37:45.767Z,97.38
2022-07-26T02:38:45.685Z,97.58
2022-07-26T02:39:45.701Z,97.17
2022-07-26T02:40:45.645Z,97.47
2022-07-26T02:41:45.670Z,98.08
2022-07-26T02:42:46.540Z,96.87
2022-07-26T02:43:45.648Z,96.20
2022-07-26T02:44:45.666Z,95.70
2022-07-26T02:45:45.622Z,95.79
2022-07-26T02:46:46.750Z,96.25
2022-07-26T02:47:46.553Z,95.84
2022-07-26T02:48:45.647Z,95.90
2022-07-26T02:49:45.588Z,96.35
2022-07-26T02:50:47.385Z,96.55
2022-07-26T02:52:17.507Z,96.19
2022-07-26T02:52:46.483Z,96.70
2022-07-26T02:53:46.521Z,96.39
2022-07-26T02:54:46.490Z,96.70
2022-07-26T02:55:45.623Z,96.50
2022-07-26T02:56:45.612Z,96.39
2022-07-26T02:57:46.229Z,96.39
2022-07-26T02:58:45.529Z,96.09
2022-07-26T02:59:45.537Z,97.00
2022-07-26T03:00:45.510Z,97.71
2022-07-26T03:01:45.545Z,97.61
2022-07-26T03:02:45.553Z,98.22
2022-07-26T03:03:50.383Z,98.02
2022-07-26T03:04:47.513Z,98.02
2022-07-26T03:05:45.457Z,98.18
2022-07-26T03:06:45.476Z,98.32
2022-07-26T03:07:45.547Z,98.38
2022-07-26T03:08:45.454Z,98.48
2022-07-26T03:09:45.479Z,98.32
2022-07-26T03:10:45.430Z,98.43
2022-07-26T03:11:45.462Z,98.12
2022-07-26T03:12:45.402Z,98.32
2022-07-26T03:13:45.433Z,97.61
2022-07-26T03:14:45.386Z,97.35
2022-07-26T03:15:45.425Z,96.84
2022-07-26T03:16:45.489Z,96.84
2022-07-26T03:17:45.380Z,97.25
2022-07-26T03:18:45.406Z,97.35
2022-07-26T03:19:45.371Z,97.05
2022-07-26T03:20:45.373Z,96.89
2022-07-26T03:21:45.402Z,96.84
2022-07-26T03:22:45.349Z,96.48
2022-07-26T03:23:45.362Z,97.09
2022-07-26T03:24:45.326Z,96.54
2022-07-26T03:25:45.339Z,96.84
2022-07-26T03:26:45.449Z,97.05
2022-07-26T03:27:45.308Z,97.09
2022-07-26T03:28:45.294Z,96.99
2022-07-26T03:29:45.292Z,96.28
2022-07-26T03:30:45.322Z,97.30
2022-07-26T03:31:45.330Z,97.30
2022-07-26T03:32:45.279Z,96.99
2022-07-26T03:33:45.321Z,97.40
2022-07-26T03:34:45.250Z,97.50
2022-07-26T03:35:45.256Z,97.50
2022-07-26T03:36:45.301Z,97.80
2022-07-26T03:37:45.903Z,97.40
2022-07-26T03:38:45.275Z,97.40
2022-07-26T03:39:45.291Z,97.40
2022-07-26T03:40:45.237Z,97.91
2022-07-26T03:41:45.201Z,97.91
2022-07-26T03:42:45.385Z,98.16
2022-07-26T03:43:46.007Z,97.80
2022-07-26T03:44:45.179Z,98.27
2022-07-26T03:45:46.189Z,99.08
2022-07-26T04:01:42.458Z,98.92
2022-07-26T04:02:42.371Z,98.66
2022-07-26T04:03:47.600Z,98.01
2022-07-26T04:04:45.386Z,98.01
2022-07-26T04:05:49.098Z,97.30
2022-07-26T04:06:44.449Z,97.34
2022-07-26T04:07:52.822Z,96.99
2022-07-26T04:08:44.990Z,96.99
2022-07-26T04:09:43.409Z,96.89
2022-07-26T04:10:43.372Z,96.79
2022-07-26T04:11:43.344Z,97.34
2022-07-26T04:12:43.988Z,96.73
2022-07-26T04:13:43.413Z,96.73
2022-07-26T04:14:43.394Z,96.63
2022-07-26T04:15:43.346Z,96.43
2022-07-26T04:16:43.969Z,96.94
2022-07-26T04:17:44.354Z,96.73
2022-07-26T04:18:43.348Z,95.98
2022-07-26T04:19:43.299Z,95.42
2022-07-26T04:20:43.288Z,95.42
2022-07-26T04:21:43.995Z,94.62
2022-07-26T04:22:43.338Z,93.73
2022-07-26T04:23:47.766Z,92.32
2022-07-26T04:24:44.281Z,91.16
2022-07-26T04:25:43.286Z,90.92
2022-07-26T04:26:43.261Z,88.71
2022-07-26T04:27:43.379Z,87.62
2022-07-26T04:28:43.249Z,86.27
2022-07-26T04:29:43.288Z,86.43
2022-07-26T04:30:44.881Z,85.38
2022-07-26T04:31:43.269Z,85.36
2022-07-26T04:32:43.218Z,86.27
2022-07-26T04:33:44.211Z,86.63
2022-07-26T04:34:44.014Z,86.16
2022-07-26T04:35:43.284Z,85.22
2022-07-26T04:36:43.209Z,86.07
2022-07-26T04:37:43.178Z,86.87
2022-07-26T04:38:43.165Z,86.51
2022-07-26T04:39:43.148Z,86.57
2022-07-26T04:40:43.181Z,86.55
2022-07-26T04:41:43.205Z,87.70
2022-07-26T04:42:43.135Z,87.76
2022-07-26T04:43:43.167Z,87.40
2022-07-26T04:44:44.006Z,87.12
2022-07-26T04:45:43.207Z,85.72
2022-07-26T04:46:45.225Z,84.03
2022-07-26T04:47:43.110Z,82.78
2022-07-26T04:48:43.247Z,81.70
2022-07-26T04:49:43.130Z,81.79
2022-07-26T04:50:43.111Z,80.31
2022-07-26T04:51:43.090Z,79.06
2022-07-26T04:52:43.036Z,78.40
2022-07-26T04:53:43.038Z,78.46
2022-07-26T04:54:43.008Z,77.69
2022-07-26T04:55:43.033Z,75.64
2022-07-26T04:56:43.027Z,74.90
2022-07-26T04:57:42.993Z,73.77
2022-07-26T04:58:42.991Z,72.53
2022-07-26T04:59:43.989Z,73.44
2022-07-26T05:01:08.506Z,76.28
2022-07-26T05:01:45.034Z,75.01
2022-07-26T05:02:43.002Z,73.33
2022-07-26T05:03:42.979Z,72.66
2022-07-26T05:04:42.942Z,71.36
2022-07-26T05:05:42.965Z,71.69
2022-07-26T05:06:42.985Z,71.86
2022-07-26T05:07:42.952Z,71.16
2022-07-26T05:08:42.951Z,72.06
2022-07-26T05:09:43.079Z,70.03
2022-07-26T05:10:44.966Z,69.29
2022-07-26T05:11:43.907Z,70.46
2022-07-26T05:12:42.952Z,70.73
2022-07-26T05:13:42.891Z,69.66
2022-07-26T05:14:42.893Z,69.69
2022-07-26T05:15:42.985Z,70.06
2022-07-26T05:16:44.393Z,71.66
2022-07-26T05:17:42.955Z,70.16
2022-07-26T05:18:45.863Z,67.40
2022-07-26T05:19:48.847Z,66.80
2022-07-26T05:20:44.932Z,67.10
2022-07-26T05:21:42.835Z,67.73
2022-07-26T05:22:42.831Z,65.67
2022-07-26T05:23:42.824Z,64.61
2022-07-26T05:24:42.798Z,65.17
2022-07-26T05:25:42.789Z,64.67
2022-07-26T05:26:42.801Z,63.92
2022-07-26T05:27:42.769Z,64.01
2022-07-26T05:28:43.042Z,62.86
2022-07-26T05:29:42.752Z,62.37
2022-07-26T05:30:42.781Z,63.06
2022-07-26T05:31:42.752Z,61.67
2022-07-26T05:32:42.839Z,62.42
2022-07-26T05:33:42.723Z,63.78
2022-07-26T05:34:42.730Z,63.78
2022-07-26T05:35:43.408Z,63.82
2022-07-26T05:36:43.409Z,63.49
2022-07-26T05:37:43.410Z,62.49
2022-07-26T05:38:42.741Z,62.49
2022-07-26T05:39:42.660Z,61.44
2022-07-26T05:40:45.970Z,63.81
2022-07-26T05:41:43.650Z,66.17
2022-07-26T05:42:42.644Z,65.53
2022-07-26T05:43:42.639Z,65.20
2022-07-26T05:44:42.950Z,64.51
2022-07-26T05:45:42.693Z,63.26
2022-07-26T05:46:42.621Z,61.78
2022-07-26T05:47:42.617Z,61.67
2022-07-26T05:48:42.668Z,62.01
2022-07-26T05:49:42.616Z,61.48
2022-07-26T05:50:42.760Z,60.36
2022-07-26T05:51:42.676Z,60.03
2022-07-26T05:52:42.578Z,59.04
2022-07-26T05:53:42.586Z,59.39
2022-07-26T05:54:42.727Z,59.75
2022-07-26T05:55:42.570Z,61.54
2022-07-26T05:56:42.566Z,61.10
2022-07-26T05:57:43.416Z,61.93
2022-07-26T05:58:42.564Z,61.50
2022-07-26T05:59:42.551Z,62.13
2022-07-26T06:00:48.291Z,61.43
2022-07-26T06:01:44.563Z,62.95
2022-07-26T06:02:42.560Z,63.15
2022-07-26T06:03:42.498Z,63.28
2022-07-26T06:04:44.488Z,63.38
2022-07-26T06:05:43.524Z,62.88
2022-07-26T06:06:43.415Z,62.95
2022-07-26T06:07:42.559Z,63.12
2022-07-26T06:08:42.489Z,61.30
2022-07-26T06:09:42.542Z,61.99
2022-07-26T06:10:42.501Z,61.90
2022-07-26T06:11:42.532Z,61.01
2022-07-26T06:12:42.422Z,60.02
2022-07-26T06:13:43.152Z,60.19
2022-07-26T06:14:43.414Z,59.07
2022-07-26T06:15:42.410Z,59.09
2022-07-26T06:16:42.463Z,59.75
2022-07-26T06:17:42.464Z,60.21
2022-07-26T06:18:42.925Z,60.47
2022-07-26T06:19:47.352Z,59.92
2022-07-26T06:20:44.372Z,58.42
2022-07-26T06:21:42.949Z,57.20
2022-07-26T06:22:42.377Z,56.65
2022-07-26T06:23:42.361Z,55.90
2022-07-26T06:24:42.327Z,55.30
2022-07-26T06:25:42.937Z,54.98
2022-07-26T06:26:42.950Z,55.45
2022-07-26T06:27:42.359Z,53.97
2022-07-26T06:28:42.330Z,54.29
2022-07-26T06:29:43.012Z,54.32
2022-07-26T06:30:43.284Z,55.13
2022-07-26T06:31:42.345Z,55.46
2022-07-26T06:32:42.315Z,55.16
2022-07-26T06:33:42.293Z,55.43
2022-07-26T06:34:42.249Z,55.13
2022-07-26T06:35:42.268Z,54.74
2022-07-26T06:36:42.257Z,55.53
2022-07-26T06:37:42.307Z,55.88
2022-07-26T06:38:42.370Z,55.46
2022-07-26T06:39:42.426Z,55.46
2022-07-26T06:40:43.124Z,56.52
2022-07-26T06:41:42.222Z,55.56
2022-07-26T06:42:42.215Z,56.30
2022-07-26T06:43:42.195Z,55.81
2022-07-26T06:44:42.268Z,55.16
2022-07-26T06:45:42.257Z,55.01
2022-07-26T06:46:42.315Z,54.12
2022-07-26T06:47:42.170Z,53.87
2022-07-26T06:48:42.189Z,55.06
2022-07-26T06:49:43.209Z,55.71
2022-07-26T06:50:43.091Z,56.56
2022-07-26T06:51:42.143Z,57.85
2022-07-26T06:52:42.155Z,57.68
2022-07-26T06:53:43.148Z,60.14
2022-07-26T06:54:42.215Z,58.86
2022-07-26T06:55:42.664Z,59.05
2022-07-26T06:56:42.142Z,59.08
2022-07-26T06:57:49.587Z,59.91
2022-07-26T06:58:43.121Z,62.32
2022-07-26T06:59:42.116Z,59.95
2022-07-26T07:00:42.179Z,59.92
2022-07-26T07:01:59.644Z,59.78
2022-07-26T07:02:43.059Z,59.81
2022-07-26T07:03:42.060Z,61.25
2022-07-26T07:04:42.138Z,61.76
2022-07-26T07:05:45.324Z,61.25
2022-07-26T07:06:43.062Z,61.85
2022-07-26T07:07:42.200Z,59.98
2022-07-26T07:08:42.034Z,58.75
2022-07-26T07:09:42.043Z,59.78
2022-07-26T07:10:42.037Z,58.98
2022-07-26T07:11:42.021Z,59.58
2022-07-26T07:12:42.046Z,59.09
2022-07-26T07:13:42.009Z,58.34
2022-07-26T07:14:41.963Z,58.47
2022-07-26T07:15:43.009Z,57.64
2022-07-26T07:16:42.052Z,58.04
2022-07-26T07:17:42.028Z,56.93
2022-07-26T07:18:42.591Z,57.58
2022-07-26T07:19:41.989Z,56.23
2022-07-26T07:20:41.980Z,55.68
2022-07-26T07:21:41.963Z,54.81
2022-07-26T07:22:41.930Z,54.10
2022-07-26T07:23:41.896Z,53.47
2022-07-26T07:24:41.981Z,53.15
2022-07-26T07:25:41.943Z,52.63
2022-07-26T07:26:41.931Z,52.04
2022-07-26T07:27:41.944Z,51.54
2022-07-26T07:28:41.891Z,51.72
2022-07-26T07:29:42.146Z,51.28
2022-07-26T07:30:41.865Z,51.25
2022-07-26T07:31:47.990Z,51.45
2022-07-26T07:32:42.911Z,51.13
2022-07-26T07:33:52.551Z,51.03
2022-07-26T07:34:42.838Z,52.61
2022-07-26T07:35:41.835Z,51.13
2022-07-26T07:36:41.855Z,51.13
2022-07-26T07:37:52.529Z,49.79
2022-07-26T07:38:43.006Z,50.68
2022-07-26T07:39:41.802Z,50.81
2022-07-26T07:40:41.795Z,51.59
2022-07-26T07:41:41.815Z,51.57
2022-07-26T07:42:41.780Z,50.26
2022-07-26T07:43:41.822Z,49.65
2022-07-26T07:44:42.780Z,49.48
2022-07-26T07:45:41.900Z,49.50
2022-07-26T07:46:41.811Z,49.92
2022-07-26T07:47:41.815Z,50.66
2022-07-26T07:48:47.049Z,51.42
2022-07-26T07:49:43.864Z,51.64
2022-07-26T07:50:41.745Z,51.50
2022-07-26T07:51:41.716Z,49.87
2022-07-26T07:52:41.835Z,49.35
2022-07-26T07:53:41.694Z,49.28
2022-07-26T07:54:42.306Z,49.65
2022-07-26T07:55:44.072Z,49.16
2022-07-26T07:56:43.703Z,48.35
2022-07-26T07:57:41.691Z,47.66
2022-07-26T07:58:42.586Z,48.71
2022-07-26T07:59:41.685Z,47.66
2022-07-26T08:00:41.723Z,47.00
2022-07-26T08:01:41.705Z,47.70
2022-07-26T08:02:41.660Z,49.92
2022-07-26T08:03:41.716Z,49.40
2022-07-26T08:04:41.697Z,49.50
2022-07-26T08:05:41.684Z,49.48
2022-07-26T08:06:41.678Z,49.40
2022-07-26T08:07:41.634Z,49.90
2022-07-26T08:08:41.620Z,49.57
2022-07-26T08:09:43.028Z,49.67
2022-07-26T08:10:43.583Z,49.28
2022-07-26T08:11:42.890Z,49.38
2022-07-26T08:12:41.789Z,49.38
2022-07-26T08:13:45.791Z,47.95
2022-07-26T08:14:43.573Z,48.82
2022-07-26T08:15:41.536Z,48.71
2022-07-26T08:16:41.714Z,47.63
2022-07-26T08:17:41.936Z,49.79
2022-07-26T08:18:55.658Z,49.87
2022-07-26T08:19:43.515Z,51.13
2022-07-26T08:20:41.503Z,51.94
2022-07-26T08:21:41.705Z,51.25
2022-07-26T08:22:42.517Z,51.32
2022-07-26T08:23:41.493Z,52.24
2022-07-26T08:24:41.479Z,50.56
2022-07-26T08:25:55.164Z,49.18
2022-07-26T08:26:45.651Z,49.72
2022-07-26T08:27:42.144Z,49.60
2022-07-26T08:28:58.524Z,50.14
2022-07-26T08:29:43.442Z,50.04
2022-07-26T08:30:41.510Z,50.38
2022-07-26T08:31:41.470Z,49.75
2022-07-26T08:32:41.476Z,49.50
2022-07-26T08:33:46.447Z,51.18
2022-07-26T08:34:42.430Z,51.94
2022-07-26T08:35:41.415Z,51.52
2022-07-26T08:36:54.756Z,51.28
2022-07-26T08:37:43.412Z,49.69
2022-07-26T08:38:41.522Z,47.73
2022-07-26T08:39:41.397Z,47.66
2022-07-26T08:40:41.427Z,49.28
2022-07-26T08:41:41.412Z,49.43
2022-07-26T08:42:41.390Z,49.84
2022-07-26T08:43:51.378Z,51.45
2022-07-26T08:44:42.360Z,51.20
2022-07-26T08:45:41.497Z,51.67
2022-07-26T08:46:41.359Z,50.56
2022-07-26T08:48:00.727Z,51.07
2022-07-26T08:48:43.418Z,50.19
2022-07-26T08:49:41.301Z,50.51
2022-07-26T08:50:41.497Z,52.04
2022-07-26T08:51:41.340Z,52.54
2022-07-26T08:52:41.356Z,52.96
2022-07-26T08:53:41.285Z,54.10
2022-07-26T08:54:42.036Z,54.49
2022-07-26T08:56:43.287Z,55.15
2022-07-26T08:57:42.193Z,54.85
2022-07-26T08:58:41.246Z,56.73
2022-07-26T08:59:41.727Z,56.95
2022-07-26T09:00:41.370Z,56.36
2022-07-26T09:01:41.313Z,54.67
2022-07-26T09:02:41.236Z,53.11
2022-07-26T09:03:41.289Z,53.00
2022-07-26T09:04:44.481Z,52.51
2022-07-26T09:05:43.028Z,52.14
2022-07-26T09:06:41.240Z,51.32
2022-07-26T09:07:41.308Z,51.67
2022-07-26T09:08:42.094Z,50.12
2022-07-26T09:09:41.171Z,50.21
2022-07-26T09:10:41.956Z,50.02
2022-07-26T09:11:41.173Z,50.63
2022-07-26T09:12:41.164Z,51.47
2022-07-26T09:13:41.156Z,51.23
2022-07-26T09:14:41.127Z,51.42
2022-07-26T09:15:41.153Z,49.97
2022-07-26T09:16:41.185Z,49.23
2022-07-26T09:17:41.151Z,47.75
2022-07-26T09:18:41.150Z,48.61
2022-07-26T09:19:41.100Z,49.23
2022-07-26T09:20:41.340Z,49.28
2022-07-26T09:21:41.082Z,49.90
2022-07-26T09:22:42.037Z,49.55
2022-07-26T09:23:41.063Z,48.83
2022-07-26T09:24:41.530Z,47.92
2022-07-26T09:25:41.049Z,47.56
2022-07-26T09:26:41.038Z,46.19
2022-07-26T09:27:42.034Z,48.14
2022-07-26T09:28:44.991Z,49.48
2022-07-26T09:29:41.027Z,50.02
2022-07-26T09:30:41.947Z,49.49
2022-07-26T09:31:41.174Z,51.65
2022-07-26T09:32:41.049Z,53.08
2022-07-26T09:33:40.998Z,54.10
2022-07-26T09:34:51.877Z,55.11
2022-07-26T09:35:49.917Z,55.54
2022-07-26T09:36:42.981Z,55.64
2022-07-26T09:37:40.995Z,55.74
2022-07-26T09:38:41.094Z,55.64
2022-07-26T09:39:41.002Z,56.16
2022-07-26T09:40:41.931Z,55.66
2022-07-26T09:41:41.942Z,56.26
2022-07-26T09:42:40.976Z,56.06
2022-07-26T09:43:41.178Z,55.04
2022-07-26T09:44:47.716Z,54.62
2022-07-26T09:45:41.937Z,54.89
2022-07-26T09:46:40.956Z,53.65
2022-07-26T09:47:40.956Z,52.61
2022-07-26T09:49:08.295Z,52.98
2022-07-26T09:49:43.025Z,53.40
2022-07-26T09:50:40.915Z,53.72
2022-07-26T09:51:40.971Z,53.55
2022-07-26T09:52:40.880Z,54.00
2022-07-26T09:53:40.850Z,55.11
2022-07-26T09:54:40.836Z,55.44
2022-07-26T09:55:44.852Z,56.49
2022-07-26T09:56:41.961Z,55.89
2022-07-26T09:57:40.853Z,56.16
2022-07-26T09:58:40.825Z,56.66
2022-07-26T09:59:40.834Z,55.57
2022-07-26T10:00:40.803Z,56.76
2022-07-26T10:01:40.890Z,56.16
2022-07-26T10:02:40.850Z,56.46
2022-07-26T10:03:40.797Z,56.91
2022-07-26T10:04:40.840Z,57.11
2022-07-26T10:05:40.777Z,57.11
2022-07-26T10:06:41.025Z,57.21
2022-07-26T10:07:40.758Z,56.71
2022-07-26T10:08:40.797Z,57.41
2022-07-26T10:09:41.673Z,57.31
2022-07-26T10:10:41.738Z,57.31
2022-07-26T10:11:40.838Z,57.53
2022-07-26T10:12:41.842Z,57.73
2022-07-26T10:13:40.705Z,58.73
2022-07-26T10:14:40.710Z,57.96
2022-07-26T10:15:40.749Z,57.86
2022-07-26T10:16:40.661Z,59.28
2022-07-26T10:17:40.971Z,58.86
2022-07-26T10:18:40.818Z,58.56
2022-07-26T10:19:45.592Z,58.88
2022-07-26T10:20:42.867Z,60.14
2022-07-26T10:21:40.643Z,59.35
2022-07-26T10:22:40.670Z,58.56
2022-07-26T10:23:40.607Z,58.13
2022-07-26T10:24:40.605Z,58.75
2022-07-26T10:25:40.624Z,58.73
2022-07-26T10:26:40.611Z,58.45
2022-07-26T10:27:40.675Z,59.25
2022-07-26T10:28:40.594Z,58.73
2022-07-26T10:29:40.620Z,58.20
2022-07-26T10:30:41.539Z,57.90
2022-07-26T10:31:40.724Z,58.40
2022-07-26T10:32:40.587Z,57.83
2022-07-26T10:33:40.555Z,57.83
2022-07-26T10:34:40.563Z,58.13
2022-07-26T10:35:40.673Z,58.13
2022-07-26T10:36:41.143Z,59.99
2022-07-26T10:37:40.519Z,57.93
2022-07-26T10:38:40.567Z,57.93
2022-07-26T10:39:40.561Z,57.26
2022-07-26T10:40:40.529Z,57.83
2022-07-26T10:41:41.160Z,58.56
2022-07-26T10:42:40.575Z,57.86
2022-07-26T10:43:41.745Z,58.48
2022-07-26T10:44:41.469Z,58.26
2022-07-26T10:45:40.504Z,58.65
2022-07-26T10:46:40.757Z,58.16
2022-07-26T10:47:40.437Z,58.36
2022-07-26T10:48:40.503Z,57.19
2022-07-26T10:49:40.430Z,57.82
2022-07-26T10:50:40.430Z,58.78
2022-07-26T10:52:12.332Z,58.28
2022-07-26T10:52:40.387Z,58.18
2022-07-26T10:53:40.404Z,58.16
2022-07-26T10:54:41.047Z,58.06
2022-07-26T10:55:40.448Z,57.56
2022-07-26T10:56:40.398Z,58.43
2022-07-26T10:57:41.065Z,57.96
2022-07-26T10:58:40.388Z,57.43
2022-07-26T10:59:55.314Z,57.53
2022-07-26T11:00:42.350Z,57.93
2022-07-26T11:01:40.396Z,58.06
2022-07-26T11:02:41.420Z,58.18
2022-07-26T11:03:40.326Z,58.16
2022-07-26T11:04:40.342Z,58.78
2022-07-26T11:05:40.339Z,59.01
2022-07-26T11:06:40.411Z,60.24
2022-07-26T11:07:40.309Z,60.00
2022-07-26T11:08:44.570Z,59.41
2022-07-26T11:09:41.598Z,59.70
2022-07-26T11:10:40.278Z,59.70
2022-07-26T11:11:46.804Z,59.51
2022-07-26T11:12:41.329Z,60.30
2022-07-26T11:14:12.738Z,59.70
2022-07-26T11:15:12.187Z,60.40
2022-07-26T11:15:40.264Z,60.24
2022-07-26T11:16:41.047Z,60.13
2022-07-26T11:17:40.452Z,61.43
2022-07-26T11:18:40.189Z,60.93
2022-07-26T11:19:40.197Z,59.83
2022-07-26T11:20:40.195Z,60.76
2022-07-26T11:21:40.163Z,60.56
2022-07-26T11:22:40.199Z,60.86
2022-07-26T11:23:40.147Z,61.06
2022-07-26T11:24:40.156Z,61.46
2022-07-26T11:25:40.161Z,61.66
2022-07-26T11:26:40.124Z,61.25
2022-07-26T11:27:40.696Z,61.46
2022-07-26T11:28:40.142Z,60.79
2022-07-26T11:29:41.044Z,61.39
2022-07-26T11:30:40.146Z,61.99
2022-07-26T11:31:51.389Z,61.61
2022-07-26T11:32:41.175Z,62.12
2022-07-26T11:33:40.231Z,61.71
2022-07-26T11:34:40.219Z,61.52
2022-07-26T11:35:40.078Z,63.11
2022-07-26T11:36:40.108Z,62.71
2022-07-26T11:37:40.080Z,63.61
2022-07-26T11:38:40.054Z,63.84
2022-07-26T11:39:40.059Z,64.17
2022-07-26T11:40:40.058Z,65.00
2022-07-26T11:41:40.036Z,65.00
2022-07-26T11:42:40.026Z,64.90
2022-07-26T11:43:40.242Z,65.10
2022-07-26T11:44:40.050Z,65.26
2022-07-26T11:45:39.979Z,64.17
2022-07-26T11:46:40.026Z,65.26
2022-07-26T11:47:39.980Z,65.23
2022-07-26T11:48:39.989Z,63.94
2022-07-26T11:50:41.969Z,63.74
2022-07-26T11:51:39.983Z,63.71
2022-07-26T11:52:39.917Z,64.01
2022-07-26T11:53:40.006Z,63.41
2022-07-26T11:54:39.952Z,62.88
2022-07-26T11:55:42.874Z,63.45
2022-07-26T11:56:41.918Z,61.66
2022-07-26T11:57:39.905Z,62.15
2022-07-26T11:58:39.879Z,61.91
2022-07-26T11:59:39.880Z,62.88
2022-07-26T12:00:39.880Z,62.59
2022-07-26T12:01:39.875Z,63.21
2022-07-26T12:02:40.937Z,63.61
2022-07-26T12:03:39.944Z,63.88
2022-07-26T12:04:39.938Z,62.59
2022-07-26T12:05:39.951Z,62.88
2022-07-26T12:06:39.828Z,62.88
2022-07-26T12:07:39.846Z,61.88
2022-07-26T12:08:39.843Z,61.49
2022-07-26T12:09:39.809Z,63.48
2022-07-26T12:10:39.843Z,61.96
2022-07-26T12:11:39.820Z,62.62
2022-07-26T12:12:39.765Z,61.93
2022-07-26T12:13:55.608Z,61.83
2022-07-26T12:14:40.830Z,62.52
2022-07-26T12:15:39.823Z,62.19
2022-07-26T12:16:40.693Z,61.53
2022-07-26T12:17:39.755Z,62.82
2022-07-26T12:18:39.856Z,62.29
2022-07-26T12:19:39.713Z,61.07
2022-07-26T12:20:39.815Z,60.47
2022-07-26T12:21:39.710Z,59.88
2022-07-26T12:22:40.238Z,59.18
2022-07-26T12:23:39.743Z,60.08
2022-07-26T12:24:39.708Z,59.88
2022-07-26T12:25:44.984Z,59.15
2022-07-26T12:26:40.724Z,60.27
2022-07-26T12:27:39.669Z,59.12
2022-07-26T12:28:39.672Z,58.43
2022-07-26T12:29:39.677Z,58.30
2022-07-26T12:30:39.665Z,57.90
2022-07-26T12:31:39.768Z,57.81
2022-07-26T12:32:39.621Z,58.95
2022-07-26T12:33:39.629Z,60.02
2022-07-26T12:34:39.773Z,59.99
2022-07-26T12:35:39.654Z,58.07
2022-07-26T12:36:39.581Z,59.99
2022-07-26T12:37:40.842Z,59.47
2022-07-26T12:38:40.581Z,58.54
2022-07-26T12:39:39.592Z,58.54
2022-07-26T12:40:39.604Z,58.34
2022-07-26T12:41:39.613Z,58.25
2022-07-26T12:42:39.583Z,59.07
2022-07-26T12:43:39.607Z,57.55
2022-07-26T12:44:39.846Z,57.82
2022-07-26T12:45:39.591Z,56.43
2022-07-26T12:46:39.628Z,57.48
2022-07-26T12:47:39.517Z,57.45
2022-07-26T12:48:39.530Z,57.06
2022-07-26T12:49:39.550Z,57.58
2022-07-26T12:50:39.559Z,58.25
2022-07-26T12:51:39.478Z,58.04
2022-07-26T12:52:39.479Z,57.45
2022-07-26T12:53:40.288Z,57.65
2022-07-26T12:54:39.483Z,57.55
2022-07-26T12:55:39.472Z,58.67
2022-07-26T12:56:39.476Z,57.45
2022-07-26T12:57:45.997Z,57.68
2022-07-26T12:58:40.469Z,58.90
2022-07-26T12:59:44.631Z,59.30
2022-07-26T13:00:41.561Z,59.07
2022-07-26T13:01:39.457Z,58.60
2022-07-26T13:02:39.559Z,59.27
2022-07-26T13:03:39.377Z,58.47
2022-07-26T13:05:11.392Z,58.97
2022-07-26T13:06:11.808Z,58.27
2022-07-26T13:06:39.385Z,57.98
2022-07-26T13:07:40.191Z,58.67
2022-07-26T13:08:39.338Z,58.70
2022-07-26T13:09:40.359Z,57.70
2022-07-26T13:10:40.184Z,57.90
2022-07-26T13:11:39.346Z,57.34
2022-07-26T13:12:39.405Z,57.24
2022-07-26T13:13:39.299Z,57.04
2022-07-26T13:14:40.093Z,57.26
2022-07-26T13:15:39.314Z,56.74
2022-07-26T13:16:39.357Z,57.26
2022-07-26T13:17:39.341Z,57.86
2022-07-26T13:18:39.262Z,58.06
2022-07-26T13:19:39.444Z,57.56
2022-07-26T13:20:39.247Z,58.03
2022-07-26T13:21:40.265Z,57.04
2022-07-26T13:22:39.263Z,58.00
2022-07-26T13:23:39.259Z,57.60
2022-07-26T13:24:39.287Z,57.21
2022-07-26T13:25:40.326Z,57.78
2022-07-26T13:26:39.255Z,56.46